Pep, NM

10:29 PM MDT on July 28, 2015 (GMT -0600)
APRSWXNET | | Change Station
CLOSE
Current Station
Personal Weather Station
Location: Milnesand, NM
Elevation: 4117 ft
Nearby Weather Stations

Elev 4117 ft 33.65 °N, 103.27 °W | Updated 30 minutes ago

Mostly Cloudy
Mostly Cloudy
71 °F
Feels Like 72 °F
N
9
Wind Variable Wind from NW
Gusts 14.0 mph

Today
High -- | Low -- °F
--% Chance of Precip.
Yesterday
High -- | Low -- °F
Precip. -- in
6:02 AM 7:57 PM
Waxing Gibbous, 93% visible
Pressure 30.00 in
Visibility 10.0 miles
Clouds Mostly Cloudy 9000 ft
Heat Index 72 °F
Dew Point 63 °F
Humidity 77%
Rainfall in
Snow Depth Not available.
UV 0 out of 12
Pollen 4.60 out of 12
Air Quality Not available.
Flu Activity Not available.
METAR KCVS 290358Z AUTO 06013KT 10SM TS BKN090 20/18 A3017 RMK AO2 LTG DSNT E AND S-W DZB40E45RAB45E50 TSB45 SLP157 P0000 $

More Conditions Fewer Conditions

Pressure 30.00 in
Visibility 10.0 miles
Clouds Mostly Cloudy 9000 ft
Heat Index 72 °F
Dew Point 63 °F
Humidity 77%
Rainfall in
Snow Depth Not available.
UV 0 out of 12
Pollen 4.60 out of 12
Air Quality Not available.
Flu Activity Not available.
METAR KCVS 290358Z AUTO 06013KT 10SM TS BKN090 20/18 A3017 RMK AO2 LTG DSNT E AND S-W DZB40E45RAB45E50 TSB45 SLP157 P0000 $

More Conditions Fewer Conditions

10-Day Weather Forecast

×

Almanac

Astronomy

Jul. 28, 2015 Rise Set
Actual Time
Civil Twilight
Nautical Twilight
Astronomical Twilight
Moon
Length of Visible Light
Length of Day
Tomorrow will be .
, % of the Moon is Illuminated

Today's Extremes

State Highs State Lows

Community

WunderPhotos

Upload Photos

1,842,043 photos uploaded!

WunderBlogs® & News

Nearby

Air Quality

  Air Quality AQ Index Pollutant
Not available.

Snow Depth

Station Depth Elevation

Earthquake Activity

City Distance Mag. Time & Date
Minimum magnitude displayed is 2.5.

Coastal Water Temperatures

Place Temperature

Stations

Nearby Weather Stations

Station Location Temp. Windchill Dew Point Humidity Wind Precip. Elev Updated Type